^^
Meteo Knjazevac Station Historical Data
Daily Summary for August 2, 2021 Units:  Both    English   Metric
Daily Weekly Monthly Yearly Custom
  High: Low: Average:
Temperature: 65.5 °F /  18.6 °C 58.6 °F /  14.8 °C 61.3 °F /  16.3 °C
Dew Point: 59.6 °F /  15.3 °C 55.7 °F /  13.2 °C 57.5 °F /  14.2 °C
Humidity: 91% 80% 88%
Wind Speed: 6mph /  9.7km/h - 1.5mph /  2.4km/h
Wind Gust: 7mph /  11.3km/h - -
Wind- - SW
Pressure: 29.95 in /  1014.1 hPa 29.88 in /  1011.7 hPa -
Precipitation: 0.00 in /  0 mm    
Historical Graphs
 
 
Tabular Data for August 2, 2021
Time Temperature Dew Point Pressure Wind Wind Speed Wind Gust Humidity Rainfall Rate (Hourly) solar Conditions
00:00 65.5 °F /  18.6 °C 59.1 °F /  15.1 °C 29.95in /  1014.1hPa South 2mph /  3.2km/h 4mph /  6.4km/h 80% 0.00in /  0mm 0 W/m2
00:10 65.1 °F /  18.4 °C 59.1 °F /  15.1 °C 29.95in /  1014.1hPa Calm   3mph /  4.8km/h 81% 0.00in /  0mm 0 W/m2
00:20 64.9 °F /  18.3 °C 59.6 °F /  15.3 °C 29.94in /  1013.8hPa Calm   2mph /  3.2km/h 83% 0.00in /  0mm 0 W/m2
00:30 64.6 °F /  18.1 °C 59.6 °F /  15.3 °C 29.94in /  1013.8hPa NW 2mph /  3.2km/h 6mph /  9.7km/h 84% 0.00in /  0mm 0 W/m2
00:40 64.6 °F /  18.1 °C 59.3 °F /  15.2 °C 29.93in /  1013.4hPa NNW 1mph /  1.6km/h 6mph /  9.7km/h 83% 0.00in /  0mm 0 W/m2
00:50 64.6 °F /  18.1 °C 59.3 °F /  15.2 °C 29.93in /  1013.4hPa WNW 2mph /  3.2km/h 6mph /  9.7km/h 83% 0.00in /  0mm 0 W/m2
01:00 64.4 °F /  18 °C 59.1 °F /  15.1 °C 29.92in /  1013.1hPa WNW 1mph /  1.6km/h 5mph /  8km/h 83% 0.00in /  0mm 0 W/m2
01:10 63.9 °F /  17.7 °C 58.9 °F /  14.9 °C 29.91in /  1012.8hPa South 1mph /  1.6km/h 3mph /  4.8km/h 84% 0.00in /  0mm 0 W/m2
01:20 63.7 °F /  17.6 °C 58.8 °F /  14.9 °C 29.91in /  1012.8hPa Calm   2mph /  3.2km/h 84% 0.00in /  0mm 0 W/m2
01:30 63.5 °F /  17.5 °C 58.9 °F /  14.9 °C 29.90in /  1012.4hPa WNW 1mph /  1.6km/h 3mph /  4.8km/h 85% 0.00in /  0mm 0 W/m2
01:40 63.3 °F /  17.4 °C 58.7 °F /  14.8 °C 29.90in /  1012.4hPa West 1mph /  1.6km/h 3mph /  4.8km/h 85% 0.00in /  0mm 0 W/m2
01:50 63 °F /  17.2 °C 58.7 °F /  14.8 °C 29.91in /  1012.8hPa WNW 3mph /  4.8km/h 5mph /  8km/h 86% 0.00in /  0mm 0 W/m2
02:00 62.8 °F /  17.1 °C 58.2 °F /  14.6 °C 29.91in /  1012.8hPa NW 1mph /  1.6km/h 4mph /  6.4km/h 85% 0.00in /  0mm 0 W/m2
02:10 62.6 °F /  17 °C 58.4 °F /  14.7 °C 29.90in /  1012.4hPa Calm   3mph /  4.8km/h 86% 0.00in /  0mm 0 W/m2
02:20 62.2 °F /  16.8 °C 58 °F /  14.4 °C 29.90in /  1012.4hPa WSW 1mph /  1.6km/h 2mph /  3.2km/h 86% 0.00in /  0mm 0 W/m2
02:30 61.8 °F /  16.6 °C 57.6 °F /  14.2 °C 29.90in /  1012.4hPa WSW 1mph /  1.6km/h 3mph /  4.8km/h 86% 0.00in /  0mm 0 W/m2
02:40 61.5 °F /  16.4 °C 57.9 °F /  14.4 °C 29.90in /  1012.4hPa West 5mph /  8km/h 6mph /  9.7km/h 88% 0.00in /  0mm 0 W/m2
02:50 61.5 °F /  16.4 °C 57.9 °F /  14.4 °C 29.89in /  1012.1hPa West 2mph /  3.2km/h 4mph /  6.4km/h 88% 0.00in /  0mm 0 W/m2
03:00 61.5 °F /  16.4 °C 57.9 °F /  14.4 °C 29.89in /  1012.1hPa Calm   2mph /  3.2km/h 88% 0.00in /  0mm 0 W/m2
03:10 61.2 °F /  16.2 °C 57.9 °F /  14.4 °C 29.89in /  1012.1hPa West 2mph /  3.2km/h 3mph /  4.8km/h 89% 0.00in /  0mm 0 W/m2
03:20 61.2 °F /  16.2 °C 57.9 °F /  14.4 °C 29.88in /  1011.7hPa WNW 1mph /  1.6km/h 3mph /  4.8km/h 89% 0.00in /  0mm 0 W/m2
03:30 61.2 °F /  16.2 °C 57.9 °F /  14.4 °C 29.88in /  1011.7hPa NE 5mph /  8km/h 5mph /  8km/h 89% 0.00in /  0mm 0 W/m2
03:40 61 °F /  16.1 °C 57.7 °F /  14.3 °C 29.88in /  1011.7hPa NE 3mph /  4.8km/h 6mph /  9.7km/h 89% 0.00in /  0mm 0 W/m2
03:50 60.8 °F /  16 °C 57.2 °F /  14 °C 29.89in /  1012.1hPa NNE 3mph /  4.8km/h 6mph /  9.7km/h 88% 0.00in /  0mm 0 W/m2
04:00 60.6 °F /  15.9 °C 57 °F /  13.9 °C 29.89in /  1012.1hPa Calm   4mph /  6.4km/h 88% 0.00in /  0mm 0 W/m2
04:10 60.4 °F /  15.8 °C 56.9 °F /  13.8 °C 29.89in /  1012.1hPa NW 1mph /  1.6km/h 2mph /  3.2km/h 88% 0.00in /  0mm 0 W/m2
04:20 60.1 °F /  15.6 °C 56.8 °F /  13.8 °C 29.89in /  1012.1hPa NNW 2mph /  3.2km/h 3mph /  4.8km/h 89% 0.00in /  0mm 0 W/m2
04:30 59.9 °F /  15.5 °C 56.6 °F /  13.7 °C 29.89in /  1012.1hPa NNE 3mph /  4.8km/h 5mph /  8km/h 89% 0.00in /  0mm 0 W/m2
04:40 59.9 °F /  15.5 °C 56.6 °F /  13.7 °C 29.89in /  1012.1hPa NNW 1mph /  1.6km/h 4mph /  6.4km/h 89% 0.00in /  0mm 0 W/m2
04:50 59.4 °F /  15.2 °C 56.1 °F /  13.4 °C 29.89in /  1012.1hPa WNW 1mph /  1.6km/h 6mph /  9.7km/h 89% 0.00in /  0mm 0 W/m2
05:00 59.2 °F /  15.1 °C 56.2 °F /  13.4 °C 29.89in /  1012.1hPa West 1mph /  1.6km/h 3mph /  4.8km/h 90% 0.00in /  0mm 0 W/m2
05:10 58.8 °F /  14.9 °C 55.9 °F /  13.3 °C 29.89in /  1012.1hPa WNW 2mph /  3.2km/h 5mph /  8km/h 90% 0.00in /  0mm 0 W/m2
05:20 59 °F /  15 °C 56.4 °F /  13.6 °C 29.89in /  1012.1hPa North 2mph /  3.2km/h 3mph /  4.8km/h 91% 0.00in /  0mm 0 W/m2
05:30 59 °F /  15 °C 56.1 °F /  13.4 °C 29.89in /  1012.1hPa Calm   3mph /  4.8km/h 90% 0.00in /  0mm 3 W/m2
05:40 59 °F /  15 °C 56.4 °F /  13.6 °C 29.89in /  1012.1hPa NE 6mph /  9.7km/h 7mph /  11.3km/h 91% 0.00in /  0mm 8 W/m2
05:50 58.9 °F /  14.9 °C 56.3 °F /  13.5 °C 29.89in /  1012.1hPa NE 1mph /  1.6km/h 6mph /  9.7km/h 91% 0.00in /  0mm 18 W/m2
06:00 58.6 °F /  14.8 °C 55.7 °F /  13.2 °C 29.89in /  1012.1hPa WSW 1mph /  1.6km/h 2mph /  3.2km/h 90% 0.00in /  0mm 31 W/m2
06:10 58.6 °F /  14.8 °C 56 °F /  13.3 °C 29.90in /  1012.4hPa Calm   3mph /  4.8km/h 91% 0.00in /  0mm 33 W/m2
06:20 58.6 °F /  14.8 °C 56 °F /  13.3 °C 29.89in /  1012.1hPa WNW 2mph /  3.2km/h 3mph /  4.8km/h 91% 0.00in /  0mm 39 W/m2
06:30 58.9 °F /  14.9 °C 56.3 °F /  13.5 °C 29.90in /  1012.4hPa Calm   2mph /  3.2km/h 91% 0.00in /  0mm 46 W/m2
06:40 59.2 °F /  15.1 °C 56.6 °F /  13.7 °C 29.90in /  1012.4hPa Calm   2mph /  3.2km/h 91% 0.00in /  0mm 62 W/m2
06:50 59.4 °F /  15.2 °C 56.7 °F /  13.7 °C 29.90in /  1012.4hPa ESE 1mph /  1.6km/h 4mph /  6.4km/h 91% 0.00in /  0mm 83 W/m2
07:00 59.6 °F /  15.3 °C 57 °F /  13.9 °C 29.90in /  1012.4hPa East 2mph /  3.2km/h 6mph /  9.7km/h 91% 0.00in /  0mm 88 W/m2
07:10 59.9 °F /  15.5 °C 57 °F /  13.9 °C 29.90in /  1012.4hPa NE 3mph /  4.8km/h 6mph /  9.7km/h 90% 0.00in /  0mm 95 W/m2
07:20 60.3 °F /  15.7 °C 57.3 °F /  14.1 °C 29.91in /  1012.8hPa West 2mph /  3.2km/h 5mph /  8km/h 90% 0.00in /  0mm 109 W/m2
07:30 60.6 °F /  15.9 °C 57.7 °F /  14.3 °C 29.91in /  1012.8hPa NW 1mph /  1.6km/h 3mph /  4.8km/h 90% 0.00in /  0mm 126 W/m2
Knjazevac, Serbia
Compliments of Weather Underground - 2 mb